createdAt,value
2022-08-17T00:00:44.085Z,21.21
2022-08-17T00:03:22.343Z,21.12
2022-08-17T00:05:57.565Z,20.80
2022-08-17T00:08:29.964Z,20.78
2022-08-17T00:10:58.862Z,21.16
2022-08-17T00:13:35.925Z,21.28
2022-08-17T00:16:11.362Z,21.35
2022-08-17T00:19:01.527Z,21.11
2022-08-17T00:21:56.430Z,21.16
2022-08-17T00:24:17.712Z,20.88
2022-08-17T00:26:46.240Z,20.80
2022-08-17T00:29:19.326Z,20.97
2022-08-17T00:31:48.605Z,21.18
2022-08-17T00:34:16.860Z,21.23
2022-08-17T00:36:44.681Z,21.11
2022-08-17T00:39:12.802Z,21.28
2022-08-17T00:41:42.296Z,20.96
2022-08-17T00:44:12.377Z,20.92
2022-08-17T00:46:42.562Z,20.75
2022-08-17T00:49:12.431Z,21.70
2022-08-17T00:51:55.111Z,21.34
2022-08-17T00:54:27.891Z,21.42
2022-08-17T00:57:03.102Z,21.69
2022-08-17T00:59:35.254Z,21.16
2022-08-17T01:02:04.621Z,21.43
2022-08-17T01:04:33.642Z,21.13
2022-08-17T01:07:02.420Z,21.16
2022-08-17T01:09:31.540Z,21.10
2022-08-17T01:11:59.799Z,21.00
2022-08-17T01:14:27.652Z,20.95
2022-08-17T01:16:57.533Z,20.94
2022-08-17T01:19:29.004Z,20.78
2022-08-17T01:22:11.940Z,20.83
2022-08-17T01:24:43.121Z,20.69
2022-08-17T01:27:13.923Z,20.33
2022-08-17T01:29:45.766Z,20.24
2022-08-17T01:32:14.971Z,20.61
2022-08-17T01:34:45.525Z,20.25
2022-08-17T01:37:20.172Z,21.11
2022-08-17T01:39:56.447Z,20.55
2022-08-17T01:42:38.244Z,21.08
2022-08-17T01:45:13.813Z,20.92
2022-08-17T01:47:42.172Z,20.94
2022-08-17T01:50:16.015Z,20.70
2022-08-17T01:52:45.730Z,20.39
2022-08-17T01:55:17.040Z,21.00
2022-08-17T01:57:48.152Z,20.63
2022-08-17T02:00:16.300Z,20.56
2022-08-17T02:02:46.018Z,20.57
2022-08-17T02:05:14.179Z,20.63
2022-08-17T02:07:59.530Z,21.49
2022-08-17T02:10:34.095Z,21.11
2022-08-17T02:13:04.347Z,20.78
2022-08-17T02:15:33.711Z,20.88
2022-08-17T02:18:03.390Z,21.36
2022-08-17T02:20:42.228Z,21.81
2022-08-17T02:23:13.222Z,21.64
2022-08-17T02:25:43.583Z,21.20
2022-08-17T02:28:12.633Z,21.28
2022-08-17T02:31:01.816Z,20.99
2022-08-17T02:33:42.988Z,21.33
2022-08-17T02:36:12.635Z,21.33
2022-08-17T02:38:41.512Z,21.06
2022-08-17T02:41:09.458Z,20.89
2022-08-17T02:43:37.637Z,20.80
2022-08-17T02:46:06.034Z,20.22
2022-08-17T02:48:33.870Z,20.79
2022-08-17T02:51:01.753Z,20.60
2022-08-17T02:53:35.842Z,20.40
2022-08-17T02:56:04.950Z,20.18
2022-08-17T02:58:35.808Z,20.27
2022-08-17T03:01:09.049Z,20.15
2022-08-17T03:03:37.993Z,19.89
2022-08-17T03:06:06.256Z,20.03
2022-08-17T03:08:34.473Z,20.00
2022-08-17T03:11:02.562Z,20.11
2022-08-17T03:13:31.394Z,19.93
2022-08-17T03:15:59.780Z,19.85
2022-08-17T03:18:28.290Z,19.85
2022-08-17T03:20:59.679Z,19.83
2022-08-17T03:23:29.582Z,19.58
2022-08-17T03:25:57.947Z,19.54
2022-08-17T03:28:26.449Z,19.83
2022-08-17T03:30:54.813Z,19.70
2022-08-17T03:33:23.224Z,19.83
2022-08-17T03:35:51.998Z,19.81
2022-08-17T03:38:20.605Z,19.81
2022-08-17T03:40:57.713Z,19.75
2022-08-17T03:43:32.085Z,19.54
2022-08-17T03:46:34.947Z,19.59
2022-08-17T03:49:24.536Z,19.57
2022-08-17T03:52:15.032Z,19.61
2022-08-17T03:55:03.410Z,19.38
2022-08-17T03:57:32.190Z,19.60
2022-08-17T04:00:00.333Z,19.68
2022-08-17T04:02:31.698Z,19.65
2022-08-17T04:05:00.102Z,19.79
2022-08-17T04:07:29.880Z,19.69
2022-08-17T04:09:59.637Z,19.78
2022-08-17T04:12:31.550Z,19.48
2022-08-17T04:14:59.532Z,19.77
2022-08-17T04:17:29.213Z,19.86
2022-08-17T04:19:57.373Z,19.70
2022-08-17T04:22:30.894Z,19.99
2022-08-17T04:25:10.569Z,20.44
2022-08-17T04:27:38.371Z,20.82
2022-08-17T04:30:10.300Z,20.94
2022-08-17T04:33:03.604Z,21.40
2022-08-17T04:35:43.960Z,21.60
2022-08-17T04:38:16.742Z,21.80
2022-08-17T04:41:03.812Z,21.83
2022-08-17T04:43:33.041Z,21.71
2022-08-17T04:46:06.536Z,21.76
2022-08-17T04:48:37.667Z,22.28
2022-08-17T04:51:32.380Z,22.30
2022-08-17T04:54:05.602Z,21.98
2022-08-17T04:56:33.843Z,22.38
2022-08-17T04:59:09.111Z,22.77
2022-08-17T05:01:39.359Z,23.01
2022-08-17T05:04:21.476Z,23.28
2022-08-17T05:06:58.092Z,22.99
2022-08-17T05:09:25.858Z,22.99
2022-08-17T05:11:53.604Z,22.87
2022-08-17T05:14:32.349Z,22.84
2022-08-17T05:17:09.363Z,23.26
2022-08-17T05:19:39.569Z,23.71
2022-08-17T05:22:07.425Z,23.88
2022-08-17T05:24:42.618Z,24.34
2022-08-17T05:27:19.078Z,25.24
2022-08-17T05:29:47.093Z,25.13
2022-08-17T05:32:47.897Z,25.61
2022-08-17T05:35:04.445Z,25.90
2022-08-17T05:37:32.243Z,26.16
2022-08-17T05:40:00.107Z,26.51
2022-08-17T05:42:28.313Z,26.95
2022-08-17T05:44:58.737Z,27.37
2022-08-17T05:47:28.711Z,27.70
2022-08-17T05:49:58.685Z,28.48
2022-08-17T05:52:49.571Z,28.44
2022-08-17T05:55:47.994Z,29.02
2022-08-17T05:58:39.588Z,28.99
2022-08-17T06:01:13.838Z,28.66
2022-08-17T06:04:11.203Z,28.64
2022-08-17T06:06:48.458Z,28.90
2022-08-17T06:09:38.602Z,29.43
2022-08-17T06:12:54.724Z,30.47
2022-08-17T06:15:45.566Z,30.78
2022-08-17T06:18:18.544Z,30.79
2022-08-17T06:21:05.382Z,30.35
2022-08-17T06:23:42.018Z,30.92
2022-08-17T06:26:25.911Z,31.38
2022-08-17T06:29:24.842Z,31.37
2022-08-17T06:31:53.063Z,31.36
2022-08-17T06:34:21.171Z,31.46
2022-08-17T06:37:19.140Z,31.22
2022-08-17T06:40:02.395Z,32.19
2022-08-17T06:43:04.981Z,32.72
2022-08-17T06:45:43.359Z,32.47
2022-08-17T06:48:28.170Z,33.02
2022-08-17T06:51:02.146Z,33.32
2022-08-17T06:53:41.202Z,33.10
2022-08-17T06:56:13.267Z,33.85
2022-08-17T06:58:43.750Z,34.17
2022-08-17T07:01:23.590Z,33.15
2022-08-17T07:03:59.332Z,33.56
2022-08-17T07:06:38.860Z,32.92
2022-08-17T07:09:14.874Z,33.79
2022-08-17T07:12:08.722Z,34.54
2022-08-17T07:14:41.140Z,33.97
2022-08-17T07:17:19.349Z,34.03
2022-08-17T07:19:51.382Z,34.54
2022-08-17T07:22:59.996Z,34.81
2022-08-17T07:25:30.833Z,34.02
2022-08-17T07:28:06.916Z,35.20
2022-08-17T07:30:45.695Z,35.53
2022-08-17T07:33:25.281Z,34.40
2022-08-17T07:35:53.722Z,33.70
2022-08-17T07:38:30.478Z,34.96
2022-08-17T07:41:02.955Z,34.60
2022-08-17T07:43:41.592Z,34.59
2022-08-17T07:46:42.661Z,34.89
2022-08-17T07:49:10.962Z,35.58
2022-08-17T07:51:48.561Z,35.62
2022-08-17T07:54:22.892Z,36.84
2022-08-17T07:57:03.365Z,37.06
2022-08-17T07:59:34.773Z,37.36
2022-08-17T08:02:31.718Z,36.91
2022-08-17T08:05:06.819Z,36.22
2022-08-17T08:07:58.077Z,36.48
2022-08-17T08:10:38.740Z,36.61
2022-08-17T08:13:23.956Z,36.98
2022-08-17T08:15:57.712Z,35.96
2022-08-17T08:18:56.038Z,36.28
2022-08-17T08:21:48.503Z,36.13
2022-08-17T08:24:36.943Z,36.18
2022-08-17T08:27:17.223Z,36.47
2022-08-17T08:30:09.913Z,36.47
2022-08-17T08:33:06.660Z,36.47
2022-08-17T08:35:53.903Z,36.70
2022-08-17T08:38:36.652Z,37.44
2022-08-17T08:41:41.171Z,37.88
2022-08-17T08:45:00.922Z,37.40
2022-08-17T08:47:54.115Z,37.36
2022-08-17T08:50:47.793Z,37.73
2022-08-17T08:53:32.385Z,37.69
2022-08-17T08:56:07.590Z,38.23
2022-08-17T08:59:01.475Z,38.48
2022-08-17T09:01:48.138Z,38.37
2022-08-17T09:05:02.830Z,38.05
2022-08-17T09:07:56.337Z,38.20
2022-08-17T09:11:06.633Z,38.41
2022-08-17T09:14:21.833Z,38.37
2022-08-17T09:16:56.115Z,37.93
2022-08-17T09:19:52.113Z,38.27
2022-08-17T09:22:36.064Z,37.78
2022-08-17T09:25:11.316Z,37.77
2022-08-17T09:27:51.321Z,38.75
2022-08-17T09:30:20.664Z,38.36
2022-08-17T09:32:55.443Z,38.74
2022-08-17T09:35:36.663Z,38.35
2022-08-17T09:38:14.081Z,37.14
2022-08-17T09:41:20.023Z,37.71
2022-08-17T09:44:03.354Z,38.26
2022-08-17T09:46:38.900Z,37.92
2022-08-17T09:49:53.606Z,38.79
2022-08-17T09:52:26.953Z,37.74
2022-08-17T09:54:56.981Z,38.65
2022-08-17T09:57:43.625Z,37.77
2022-08-17T10:00:18.125Z,36.46
2022-08-17T10:03:09.935Z,37.65
2022-08-17T10:05:56.429Z,38.46
2022-08-17T10:08:53.326Z,38.51
2022-08-17T10:11:50.351Z,39.28
2022-08-17T10:14:36.596Z,39.02
2022-08-17T10:17:36.747Z,39.12
2022-08-17T10:20:19.222Z,39.28
2022-08-17T10:23:27.258Z,38.24
2022-08-17T10:26:15.612Z,39.95
2022-08-17T10:28:49.415Z,39.08
2022-08-17T10:31:41.021Z,39.62
2022-08-17T10:34:42.913Z,38.98
2022-08-17T10:37:19.933Z,39.14
2022-08-17T10:40:07.557Z,39.38
2022-08-17T10:42:43.923Z,39.49
2022-08-17T10:45:29.813Z,39.52
2022-08-17T10:48:07.631Z,38.96
2022-08-17T10:51:03.763Z,38.39
2022-08-17T10:53:32.036Z,39.94
2022-08-17T10:56:12.275Z,38.93
2022-08-17T10:58:55.510Z,39.28
2022-08-17T11:01:29.650Z,39.03
2022-08-17T11:04:18.354Z,39.94
2022-08-17T11:07:02.370Z,40.55
2022-08-17T11:09:39.808Z,40.69
2022-08-17T11:12:20.107Z,41.03
2022-08-17T11:15:16.273Z,40.84
2022-08-17T11:18:05.504Z,39.68
2022-08-17T11:20:41.638Z,40.32
2022-08-17T11:23:39.184Z,40.35
2022-08-17T11:26:22.232Z,39.94
2022-08-17T11:28:52.833Z,40.60
2022-08-17T11:31:45.175Z,39.48
2022-08-17T11:34:23.540Z,38.85
2022-08-17T11:37:30.291Z,39.78
2022-08-17T11:40:18.262Z,38.54
2022-08-17T11:42:52.526Z,37.15
2022-08-17T11:45:47.165Z,37.76
2022-08-17T11:49:08.973Z,37.41
2022-08-17T11:52:01.477Z,37.35
2022-08-17T11:54:48.923Z,39.06
2022-08-17T11:57:42.700Z,39.09
2022-08-17T12:00:45.224Z,39.57
2022-08-17T12:03:54.130Z,39.55
2022-08-17T12:06:30.287Z,39.91
2022-08-17T12:09:13.233Z,39.79
2022-08-17T12:12:14.435Z,39.53
2022-08-17T12:15:10.170Z,39.77
2022-08-17T12:17:40.194Z,40.23
2022-08-17T12:20:23.231Z,40.05
2022-08-17T12:23:04.915Z,39.35
2022-08-17T12:25:42.422Z,38.83
2022-08-17T12:28:22.968Z,38.83
2022-08-17T12:30:52.491Z,39.88
2022-08-17T12:33:25.778Z,39.16
2022-08-17T12:36:05.345Z,38.63
2022-08-17T12:38:36.259Z,39.65
2022-08-17T12:41:27.379Z,39.56
2022-08-17T12:44:16.861Z,38.92
2022-08-17T12:46:55.966Z,39.27
2022-08-17T12:49:26.696Z,38.71
2022-08-17T12:52:05.913Z,38.74
2022-08-17T12:54:52.599Z,38.59
2022-08-17T12:57:24.930Z,39.70
2022-08-17T12:59:59.776Z,39.12
2022-08-17T13:02:32.961Z,39.31
2022-08-17T13:05:01.326Z,39.86
2022-08-17T13:07:44.719Z,38.37
2022-08-17T13:10:32.129Z,38.97
2022-08-17T13:13:06.531Z,38.13
2022-08-17T13:15:44.477Z,37.77
2022-08-17T13:18:35.515Z,37.92
2022-08-17T13:21:03.420Z,37.94
2022-08-17T13:23:33.101Z,38.77
2022-08-17T13:26:07.532Z,38.72
2022-08-17T13:28:37.691Z,38.78
2022-08-17T13:31:32.461Z,38.58
2022-08-17T13:34:26.925Z,38.28
2022-08-17T13:37:27.591Z,38.15
2022-08-17T13:40:12.005Z,38.43
2022-08-17T13:42:51.799Z,37.86
2022-08-17T13:45:35.477Z,38.24
2022-08-17T13:48:14.030Z,38.16
2022-08-17T13:50:45.727Z,38.15
2022-08-17T13:53:22.998Z,38.73
2022-08-17T13:55:55.383Z,38.68
2022-08-17T13:58:29.000Z,38.92
2022-08-17T14:00:57.270Z,37.98
2022-08-17T14:03:26.614Z,38.57
2022-08-17T14:05:54.472Z,38.06
2022-08-17T14:08:22.451Z,37.83
2022-08-17T14:10:58.422Z,37.84
2022-08-17T14:13:26.314Z,37.94
2022-08-17T14:15:56.712Z,37.85
2022-08-17T14:18:35.489Z,37.74
2022-08-17T14:21:13.553Z,37.45
2022-08-17T14:23:43.674Z,37.81
2022-08-17T14:26:23.378Z,37.43
2022-08-17T14:28:54.647Z,38.05
2022-08-17T14:31:25.223Z,37.87
2022-08-17T14:33:53.432Z,37.12
2022-08-17T14:36:21.263Z,37.96
2022-08-17T14:38:49.302Z,37.50
2022-08-17T14:41:22.056Z,37.41
2022-08-17T14:43:54.184Z,37.10
2022-08-17T14:46:22.021Z,37.21
2022-08-17T14:48:57.157Z,37.32
2022-08-17T14:51:29.083Z,37.43
2022-08-17T14:53:57.568Z,36.62
2022-08-17T14:56:26.285Z,37.22
2022-08-17T14:58:54.462Z,37.17
2022-08-17T15:01:24.698Z,37.86
2022-08-17T15:03:54.174Z,37.50
2022-08-17T15:06:22.701Z,37.58
2022-08-17T15:08:51.092Z,37.31
2022-08-17T15:11:19.032Z,37.05
2022-08-17T15:13:53.071Z,37.35
2022-08-17T15:16:21.120Z,36.67
2022-08-17T15:18:50.268Z,36.80
2022-08-17T15:21:18.342Z,36.53
2022-08-17T15:23:46.866Z,36.42
2022-08-17T15:26:15.031Z,36.65
2022-08-17T15:28:42.913Z,36.36
2022-08-17T15:31:10.785Z,36.65
2022-08-17T15:33:39.100Z,36.92
2022-08-17T15:36:08.103Z,36.68
2022-08-17T15:38:39.765Z,36.50
2022-08-17T15:41:10.312Z,36.14
2022-08-17T15:43:38.124Z,36.32
2022-08-17T15:46:12.546Z,35.94
2022-08-17T15:48:42.591Z,36.35
2022-08-17T15:51:15.114Z,36.21
2022-08-17T15:53:46.036Z,36.02
2022-08-17T15:56:15.219Z,35.93
2022-08-17T15:58:44.921Z,35.81
2022-08-17T16:01:14.977Z,36.06
2022-08-17T16:04:04.835Z,35.61
2022-08-17T16:06:34.942Z,35.37
2022-08-17T16:09:03.263Z,35.57
2022-08-17T16:11:30.999Z,35.74
2022-08-17T16:13:58.917Z,35.81
2022-08-17T16:16:29.150Z,35.85
2022-08-17T16:18:58.588Z,35.99
2022-08-17T16:21:27.745Z,36.20
2022-08-17T16:24:01.628Z,35.68
2022-08-17T16:26:31.575Z,35.79
2022-08-17T16:29:01.373Z,35.97
2022-08-17T16:31:30.644Z,35.59
2022-08-17T16:34:15.674Z,34.69
2022-08-17T16:36:53.703Z,34.82
2022-08-17T16:39:26.262Z,35.16
2022-08-17T16:41:56.251Z,35.05
2022-08-17T16:44:26.137Z,35.58
2022-08-17T16:46:54.309Z,34.64
2022-08-17T16:49:35.225Z,34.24
2022-08-17T16:52:07.166Z,34.33
2022-08-17T16:54:38.141Z,33.88
2022-08-17T16:57:06.445Z,34.11
2022-08-17T16:59:40.869Z,33.94
2022-08-17T17:02:17.273Z,33.81
2022-08-17T17:05:00.177Z,33.62
2022-08-17T17:07:34.976Z,33.34
2022-08-17T17:10:07.128Z,33.54
2022-08-17T17:13:01.886Z,33.69
2022-08-17T17:15:29.080Z,33.64
2022-08-17T17:18:06.879Z,33.68
2022-08-17T17:20:43.818Z,33.50
2022-08-17T17:23:35.903Z,32.61
2022-08-17T17:26:12.865Z,33.41
2022-08-17T17:29:11.413Z,32.81
2022-08-17T17:31:51.444Z,33.11
2022-08-17T17:34:19.923Z,32.87
2022-08-17T17:36:50.064Z,32.21
2022-08-17T17:39:20.791Z,31.71
2022-08-17T17:41:56.480Z,31.36
2022-08-17T17:44:42.892Z,30.98
2022-08-17T17:47:13.275Z,30.63
2022-08-17T17:49:46.892Z,30.21
2022-08-17T17:52:19.502Z,29.76
2022-08-17T17:55:06.219Z,28.99
2022-08-17T17:57:59.631Z,29.50
2022-08-17T18:00:39.861Z,29.56
2022-08-17T18:03:20.065Z,29.11
2022-08-17T18:06:01.246Z,28.85
2022-08-17T18:09:03.031Z,28.59
2022-08-17T18:11:46.537Z,28.29
2022-08-17T18:14:45.054Z,27.79
2022-08-17T18:17:14.443Z,27.43
2022-08-17T18:19:42.532Z,27.32
2022-08-17T18:22:23.721Z,27.48
2022-08-17T18:24:57.351Z,27.67
2022-08-17T18:27:40.090Z,27.92
2022-08-17T18:30:11.037Z,27.98
2022-08-17T18:32:43.807Z,27.99
2022-08-17T18:35:11.929Z,27.84
2022-08-17T18:37:51.680Z,27.20
2022-08-17T18:40:20.338Z,27.27
2022-08-17T18:43:08.825Z,27.69
2022-08-17T18:45:47.681Z,27.71
2022-08-17T18:48:33.113Z,27.43
2022-08-17T18:51:05.512Z,26.98
2022-08-17T18:53:41.553Z,27.10
2022-08-17T18:56:31.335Z,26.72
2022-08-17T18:59:07.114Z,26.56
2022-08-17T19:02:15.323Z,26.36
2022-08-17T19:05:08.587Z,26.14
2022-08-17T19:07:38.762Z,25.63
2022-08-17T19:10:31.415Z,26.09
2022-08-17T19:13:12.738Z,26.22
2022-08-17T19:16:13.055Z,25.99
2022-08-17T19:19:04.842Z,25.96
2022-08-17T19:21:40.610Z,25.50
2022-08-17T19:24:14.313Z,25.19
2022-08-17T19:26:54.747Z,25.22
2022-08-17T19:29:39.034Z,25.38
2022-08-17T19:32:08.240Z,25.31
2022-08-17T19:34:37.601Z,25.32
2022-08-17T19:37:17.793Z,25.49
2022-08-17T19:39:54.746Z,25.21
2022-08-17T19:43:01.413Z,24.94
2022-08-17T19:45:35.154Z,25.47
2022-08-17T19:48:38.468Z,25.60
2022-08-17T19:51:10.942Z,25.82
2022-08-17T19:54:04.981Z,25.67
2022-08-17T19:57:03.521Z,25.39
2022-08-17T19:59:51.754Z,25.43
2022-08-17T20:02:26.082Z,25.48
2022-08-17T20:04:58.333Z,25.37
2022-08-17T20:07:38.703Z,25.23
2022-08-17T20:10:10.144Z,25.14
2022-08-17T20:12:39.745Z,25.37
2022-08-17T20:15:18.102Z,24.86
2022-08-17T20:17:47.269Z,24.96
2022-08-17T20:20:46.896Z,25.01
2022-08-17T20:23:54.154Z,24.80
2022-08-17T20:26:27.767Z,24.23
2022-08-17T20:29:14.009Z,24.66
2022-08-17T20:32:23.017Z,24.33
2022-08-17T20:35:04.109Z,24.33
2022-08-17T20:37:34.825Z,24.27
2022-08-17T20:40:09.426Z,24.16
2022-08-17T20:42:37.798Z,24.03
2022-08-17T20:45:20.704Z,23.98
2022-08-17T20:48:18.458Z,23.72
2022-08-17T20:50:43.650Z,23.61
2022-08-17T20:53:15.113Z,23.56
2022-08-17T20:55:52.225Z,23.38
2022-08-17T20:58:30.009Z,23.30
2022-08-17T21:00:59.172Z,23.22
2022-08-17T21:03:27.433Z,23.12
2022-08-17T21:06:17.653Z,22.99
2022-08-17T21:09:15.852Z,23.07
2022-08-17T21:11:57.221Z,23.01
2022-08-17T21:14:38.242Z,22.88
2022-08-17T21:17:29.781Z,23.00
2022-08-17T21:20:32.290Z,23.07
2022-08-17T21:23:18.002Z,22.94
2022-08-17T21:25:58.087Z,22.87
2022-08-17T21:28:37.954Z,22.80
2022-08-17T21:31:46.681Z,22.02
2022-08-17T21:34:15.294Z,22.29
2022-08-17T21:36:44.763Z,22.63
2022-08-17T21:39:15.743Z,22.46
2022-08-17T21:41:57.596Z,22.04
2022-08-17T21:44:37.473Z,22.51
2022-08-17T21:47:25.283Z,22.51
2022-08-17T21:49:54.373Z,22.49
2022-08-17T21:52:24.833Z,22.53
2022-08-17T21:54:55.355Z,22.35
2022-08-17T21:57:29.904Z,21.92
2022-08-17T22:00:00.582Z,22.02
2022-08-17T22:02:32.643Z,22.42
2022-08-17T22:05:06.931Z,22.19
2022-08-17T22:07:41.723Z,21.90
2022-08-17T22:10:34.794Z,22.12
2022-08-17T22:13:16.951Z,22.03
2022-08-17T22:15:48.634Z,22.28
2022-08-17T22:18:27.693Z,22.21
2022-08-17T22:29:53.289Z,22.28
2022-08-17T22:32:32.933Z,22.24
2022-08-17T22:35:19.232Z,21.77
2022-08-17T22:37:47.454Z,21.91
2022-08-17T22:40:31.232Z,21.19
2022-08-17T22:43:01.203Z,22.09
2022-08-17T22:45:33.694Z,22.12
2022-08-17T22:48:02.233Z,21.79
2022-08-17T22:50:31.070Z,21.84
2022-08-17T23:01:32.796Z,21.59
2022-08-17T23:04:16.164Z,21.08
2022-08-17T23:06:43.825Z,21.90
2022-08-17T23:09:11.923Z,22.04
2022-08-17T23:11:51.262Z,22.21
2022-08-17T23:14:20.646Z,21.81
2022-08-17T23:16:50.418Z,22.03
2022-08-17T23:19:21.314Z,21.92
2022-08-17T23:21:51.154Z,21.81
2022-08-17T23:24:26.035Z,21.84
2022-08-17T23:26:57.375Z,21.84
2022-08-17T23:29:26.424Z,21.46
2022-08-17T23:31:55.219Z,21.39
2022-08-17T23:34:25.802Z,21.50
2022-08-17T23:36:54.596Z,20.66
2022-08-17T23:39:27.409Z,20.94
2022-08-17T23:41:58.145Z,21.38
2022-08-17T23:44:27.006Z,21.37
2022-08-17T23:46:57.393Z,21.70
2022-08-17T23:49:29.047Z,21.88
2022-08-17T23:52:00.127Z,21.57
2022-08-17T23:54:34.434Z,21.92
2022-08-17T23:57:05.009Z,21.53
2022-08-17T23:59:34.014Z,21.79
